createdAt,value
2018-02-16T00:00:10.441Z,1018.89
2018-02-16T00:01:10.416Z,1018.97
2018-02-16T00:02:10.391Z,1018.95
2018-02-16T00:03:10.362Z,1019.03
2018-02-16T00:04:10.336Z,1019.04
2018-02-16T00:05:10.310Z,1019.09
2018-02-16T00:06:10.285Z,1019.12
2018-02-16T00:07:10.259Z,1019.10
2018-02-16T00:08:10.233Z,1019.12
2018-02-16T00:09:10.206Z,1019.11
2018-02-16T00:10:10.180Z,1019.14
2018-02-16T00:11:10.154Z,1019.17
2018-02-16T00:12:10.128Z,1019.19
2018-02-16T00:13:10.102Z,1019.18
2018-02-16T00:14:10.076Z,1019.20
2018-02-16T00:15:10.052Z,1019.21
2018-02-16T00:16:10.069Z,1019.25
2018-02-16T00:17:09.996Z,1019.27
2018-02-16T00:18:09.970Z,1019.29
2018-02-16T00:19:09.944Z,1019.29
2018-02-16T00:20:09.919Z,1019.36
2018-02-16T00:21:09.891Z,1019.41
2018-02-16T00:22:09.865Z,1019.37
2018-02-16T00:23:09.838Z,1019.39
2018-02-16T00:24:09.812Z,1019.40
2018-02-16T00:25:09.785Z,1019.42
2018-02-16T00:26:09.759Z,1019.39
2018-02-16T00:27:09.734Z,1019.40
2018-02-16T00:28:09.707Z,1019.41
2018-02-16T00:29:09.680Z,1019.43
2018-02-16T00:30:09.653Z,1019.41
2018-02-16T00:31:09.628Z,1019.46
2018-02-16T00:32:09.604Z,1019.47
2018-02-16T00:33:09.574Z,1019.48
2018-02-16T00:34:09.549Z,1019.53
2018-02-16T00:35:09.523Z,1019.52
2018-02-16T00:36:09.497Z,1019.60
2018-02-16T00:37:09.470Z,1019.60
2018-02-16T00:38:09.443Z,1019.57
2018-02-16T00:39:09.418Z,1019.62
2018-02-16T00:40:09.393Z,1019.62
2018-02-16T00:41:09.366Z,1019.62
2018-02-16T00:42:09.340Z,1019.65
2018-02-16T00:43:09.313Z,1019.64
2018-02-16T00:44:09.288Z,1019.62
2018-02-16T00:45:09.262Z,1019.64
2018-02-16T00:46:09.235Z,1019.62
2018-02-16T00:47:09.210Z,1019.65
2018-02-16T00:48:09.184Z,1019.72
2018-02-16T00:49:09.157Z,1019.70
2018-02-16T00:50:09.131Z,1019.68
2018-02-16T00:51:09.104Z,1019.73
2018-02-16T00:52:09.080Z,1019.76
2018-02-16T00:53:09.052Z,1019.77
2018-02-16T00:54:09.027Z,1019.78
2018-02-16T00:55:09.000Z,1019.79
2018-02-16T00:56:08.975Z,1019.77
2018-02-16T00:57:08.948Z,1019.78
2018-02-16T00:58:08.922Z,1019.76
2018-02-16T00:59:08.896Z,1019.78
2018-02-16T01:00:08.870Z,1019.78
2018-02-16T01:01:08.846Z,1019.79
2018-02-16T01:02:08.817Z,1019.81
2018-02-16T01:03:08.791Z,1019.83
2018-02-16T01:04:08.766Z,1019.82
2018-02-16T01:05:08.737Z,1019.85
2018-02-16T01:06:08.711Z,1019.82
2018-02-16T01:07:08.686Z,1019.87
2018-02-16T01:08:08.659Z,1019.86
2018-02-16T01:09:08.634Z,1019.85
2018-02-16T01:10:08.606Z,1019.88
2018-02-16T01:11:08.580Z,1019.86
2018-02-16T01:12:08.553Z,1019.89
2018-02-16T01:13:08.526Z,1019.89
2018-02-16T01:14:08.500Z,1019.86
2018-02-16T01:15:08.474Z,1019.85
2018-02-16T01:16:08.448Z,1019.86
2018-02-16T01:17:08.420Z,1019.81
2018-02-16T01:18:08.395Z,1019.83
2018-02-16T01:19:08.368Z,1019.89
2018-02-16T01:20:08.340Z,1019.94
2018-02-16T01:21:08.315Z,1019.92
2018-02-16T01:22:08.288Z,1019.95
2018-02-16T01:23:08.262Z,1019.94
2018-02-16T01:24:08.236Z,1019.96
2018-02-16T01:25:08.208Z,1019.95
2018-02-16T01:26:08.187Z,1019.95
2018-02-16T01:27:08.159Z,1019.95
2018-02-16T01:28:08.129Z,1019.96
2018-02-16T01:29:08.102Z,1019.95
2018-02-16T01:30:08.075Z,1019.99
2018-02-16T01:31:08.050Z,1019.96
2018-02-16T01:32:08.024Z,1019.96
2018-02-16T01:33:07.997Z,1020.00
2018-02-16T01:34:07.970Z,1019.98
2018-02-16T01:35:07.944Z,1020.03
2018-02-16T01:36:07.918Z,1020.05
2018-02-16T01:37:07.891Z,1020.03
2018-02-16T01:38:07.865Z,1020.03
2018-02-16T01:39:07.838Z,1020.05
2018-02-16T01:40:07.812Z,1020.02
2018-02-16T01:41:07.784Z,1020.03
2018-02-16T01:42:07.761Z,1020.06
2018-02-16T01:43:07.734Z,1020.05
2018-02-16T01:44:07.709Z,1020.06
2018-02-16T01:45:07.681Z,1020.08
2018-02-16T01:46:07.654Z,1020.06
2018-02-16T01:47:07.631Z,1020.09
2018-02-16T01:48:07.604Z,1020.10
2018-02-16T01:49:07.580Z,1020.13
2018-02-16T01:50:07.551Z,1020.13
2018-02-16T01:51:07.525Z,1020.11
2018-02-16T01:52:07.501Z,1020.12
2018-02-16T01:53:07.471Z,1020.13
2018-02-16T01:54:07.446Z,1020.12
2018-02-16T01:55:07.419Z,1020.15
2018-02-16T01:56:07.392Z,1020.12
2018-02-16T01:57:07.366Z,1020.10
2018-02-16T01:58:07.340Z,1020.13
2018-02-16T01:59:07.313Z,1020.09
2018-02-16T02:00:07.287Z,1020.13
2018-02-16T02:01:07.259Z,1020.13
2018-02-16T02:02:07.233Z,1020.15
2018-02-16T02:03:07.206Z,1020.19
2018-02-16T02:04:07.181Z,1020.19
2018-02-16T02:05:07.154Z,1020.20
2018-02-16T02:06:07.127Z,1020.18
2018-02-16T02:07:07.105Z,1020.22
2018-02-16T02:08:07.075Z,1020.19
2018-02-16T02:09:07.048Z,1020.23
2018-02-16T02:10:07.021Z,1020.28
2018-02-16T02:11:06.996Z,1020.27
2018-02-16T02:12:06.969Z,1020.29
2018-02-16T02:13:06.941Z,1020.28
2018-02-16T02:14:06.915Z,1020.32
2018-02-16T02:15:06.889Z,1020.32
2018-02-16T02:16:06.862Z,1020.37
2018-02-16T02:17:06.833Z,1020.38
2018-02-16T02:18:06.808Z,1020.40
2018-02-16T02:19:06.781Z,1020.44
2018-02-16T02:20:06.756Z,1020.42
2018-02-16T02:21:06.726Z,1020.43
2018-02-16T02:22:06.701Z,1020.44
2018-02-16T02:23:06.680Z,1020.44
2018-02-16T02:24:06.648Z,1020.47
2018-02-16T02:25:06.622Z,1020.47
2018-02-16T02:26:06.599Z,1020.48
2018-02-16T02:27:06.572Z,1020.51
2018-02-16T02:28:06.544Z,1020.53
2018-02-16T02:29:06.517Z,1020.59
2018-02-16T02:30:06.495Z,1020.59
2018-02-16T02:31:06.464Z,1020.58
2018-02-16T02:32:06.437Z,1020.59
2018-02-16T02:33:06.415Z,1020.60
2018-02-16T02:34:06.386Z,1020.61
2018-02-16T02:35:06.358Z,1020.63
2018-02-16T02:36:06.333Z,1020.59
2018-02-16T02:37:06.306Z,1020.62
2018-02-16T02:38:06.281Z,1020.61
2018-02-16T02:39:06.255Z,1020.58
2018-02-16T02:40:06.227Z,1020.56
2018-02-16T02:41:06.200Z,1020.53
2018-02-16T02:42:06.175Z,1020.56
2018-02-16T02:43:06.147Z,1020.53
2018-02-16T02:44:06.121Z,1020.57
2018-02-16T02:45:06.094Z,1020.55
2018-02-16T02:46:06.067Z,1020.59
2018-02-16T02:47:06.041Z,1020.60
2018-02-16T02:48:06.016Z,1020.59
2018-02-16T02:49:05.987Z,1020.62
2018-02-16T02:50:05.965Z,1020.65
2018-02-16T02:51:05.935Z,1020.66
2018-02-16T02:52:05.911Z,1020.71
2018-02-16T02:53:05.889Z,1020.72
2018-02-16T02:54:05.854Z,1020.77
2018-02-16T02:55:05.830Z,1020.76
2018-02-16T02:56:05.803Z,1020.80
2018-02-16T02:57:05.776Z,1020.79
2018-02-16T02:58:05.757Z,1020.79
2018-02-16T02:59:05.724Z,1020.85
2018-02-16T03:00:05.701Z,1020.88
2018-02-16T03:01:05.669Z,1020.89
2018-02-16T03:02:05.644Z,1020.94
2018-02-16T03:03:05.623Z,1020.92
2018-02-16T03:04:05.593Z,1020.95
2018-02-16T03:05:05.563Z,1021.00
2018-02-16T03:06:05.537Z,1021.02
2018-02-16T03:07:05.511Z,1020.99
2018-02-16T03:08:05.485Z,1021.01
2018-02-16T03:09:05.461Z,1021.02
2018-02-16T03:10:05.433Z,1021.03
2018-02-16T03:11:05.404Z,1021.03
2018-02-16T03:12:05.379Z,1021.00
2018-02-16T03:13:05.351Z,1021.02
2018-02-16T03:14:05.324Z,1021.02
2018-02-16T03:15:05.297Z,1021.03
2018-02-16T03:16:05.273Z,1021.05
2018-02-16T03:17:05.244Z,1021.08
2018-02-16T03:18:05.218Z,1021.08
2018-02-16T03:19:05.191Z,1021.08
2018-02-16T03:20:05.165Z,1021.09
2018-02-16T03:21:05.137Z,1021.12
2018-02-16T03:22:05.111Z,1021.10
2018-02-16T03:23:05.088Z,1021.13
2018-02-16T03:24:05.060Z,1021.15
2018-02-16T03:25:05.032Z,1021.16
2018-02-16T03:26:05.005Z,1021.12
2018-02-16T03:27:04.979Z,1021.16
2018-02-16T03:28:04.953Z,1021.19
2018-02-16T03:29:04.925Z,1021.20
2018-02-16T03:30:04.899Z,1021.20
2018-02-16T03:31:04.874Z,1021.19
2018-02-16T03:32:04.846Z,1021.17
2018-02-16T03:33:04.819Z,1021.20
2018-02-16T03:34:04.801Z,1021.18
2018-02-16T03:35:04.766Z,1021.19
2018-02-16T03:36:04.740Z,1021.21
2018-02-16T03:37:04.712Z,1021.21
2018-02-16T03:38:04.686Z,1021.25
2018-02-16T03:39:04.659Z,1021.23
2018-02-16T03:40:04.634Z,1021.28
2018-02-16T03:41:04.606Z,1021.29
2018-02-16T03:42:04.579Z,1021.32
2018-02-16T03:43:04.553Z,1021.34
2018-02-16T03:44:04.527Z,1021.38
2018-02-16T03:45:04.500Z,1021.38
2018-02-16T03:46:04.472Z,1021.36
2018-02-16T03:47:04.448Z,1021.41
2018-02-16T03:48:04.421Z,1021.41
2018-02-16T03:49:04.394Z,1021.38
2018-02-16T03:50:04.367Z,1021.38
2018-02-16T03:51:04.340Z,1021.37
2018-02-16T03:52:04.314Z,1021.35
2018-02-16T03:53:04.287Z,1021.33
2018-02-16T03:54:04.260Z,1021.36
2018-02-16T03:55:04.235Z,1021.33
2018-02-16T03:56:04.209Z,1021.34
2018-02-16T03:57:04.180Z,1021.37
2018-02-16T03:58:04.154Z,1021.40
2018-02-16T03:59:04.127Z,1021.38
2018-02-16T04:00:04.100Z,1021.40
2018-02-16T04:01:04.073Z,1021.42
2018-02-16T04:02:04.047Z,1021.46
2018-02-16T04:03:04.019Z,1021.42
2018-02-16T04:04:03.996Z,1021.44
2018-02-16T04:05:03.966Z,1021.41
2018-02-16T04:06:03.940Z,1021.46
2018-02-16T04:07:03.913Z,1021.44
2018-02-16T04:08:03.886Z,1021.44
2018-02-16T04:09:03.861Z,1021.46
2018-02-16T04:10:03.834Z,1021.47
2018-02-16T04:11:03.806Z,1021.49
2018-02-16T04:12:03.780Z,1021.49
2018-02-16T04:13:03.754Z,1021.52
2018-02-16T04:14:03.726Z,1021.56
2018-02-16T04:15:03.701Z,1021.56
2018-02-16T04:16:03.674Z,1021.59
2018-02-16T04:17:03.647Z,1021.59
2018-02-16T04:18:03.621Z,1021.57
2018-02-16T04:19:03.597Z,1021.57
2018-02-16T04:20:03.569Z,1021.60
2018-02-16T04:21:03.542Z,1021.59
2018-02-16T04:22:03.515Z,1021.59
2018-02-16T04:23:03.488Z,1021.61
2018-02-16T04:24:03.463Z,1021.62
2018-02-16T04:25:03.435Z,1021.62
2018-02-16T04:26:03.410Z,1021.64
2018-02-16T04:27:03.386Z,1021.64
2018-02-16T04:28:03.357Z,1021.66
2018-02-16T04:29:03.330Z,1021.70
2018-02-16T04:30:03.303Z,1021.74
2018-02-16T04:31:03.278Z,1021.75
2018-02-16T04:32:03.252Z,1021.77
2018-02-16T04:33:03.224Z,1021.78
2018-02-16T04:34:03.199Z,1021.82
2018-02-16T04:35:03.177Z,1021.81
2018-02-16T04:36:03.152Z,1021.80
2018-02-16T04:37:03.119Z,1021.81
2018-02-16T04:38:03.093Z,1021.86
2018-02-16T04:39:03.068Z,1021.87
2018-02-16T04:40:03.041Z,1021.87
2018-02-16T04:41:03.019Z,1021.87
2018-02-16T04:42:02.988Z,1021.89
2018-02-16T04:43:02.962Z,1021.93
2018-02-16T04:44:02.936Z,1021.94
2018-02-16T04:45:02.909Z,1021.96
2018-02-16T04:46:02.885Z,1021.97
2018-02-16T04:47:02.856Z,1021.98
2018-02-16T04:48:02.831Z,1021.99
2018-02-16T04:49:02.804Z,1022.04
2018-02-16T04:50:02.778Z,1022.05
2018-02-16T04:51:02.752Z,1022.07
2018-02-16T04:52:02.726Z,1022.05
2018-02-16T04:53:02.699Z,1022.07
2018-02-16T04:54:02.673Z,1022.08
2018-02-16T04:55:02.647Z,1022.14
2018-02-16T04:56:02.622Z,1022.14
2018-02-16T04:57:02.594Z,1022.18
2018-02-16T04:58:02.568Z,1022.17
2018-02-16T04:59:02.541Z,1022.23
2018-02-16T05:00:02.516Z,1022.22
2018-02-16T05:01:02.488Z,1022.28
2018-02-16T05:02:02.462Z,1022.27
2018-02-16T05:03:02.436Z,1022.31
2018-02-16T05:04:02.411Z,1022.30
2018-02-16T05:05:02.383Z,1022.35
2018-02-16T05:06:02.358Z,1022.34
2018-02-16T05:07:02.332Z,1022.32
2018-02-16T05:08:02.305Z,1022.34
2018-02-16T05:09:02.278Z,1022.35
2018-02-16T05:10:02.258Z,1022.37
2018-02-16T05:11:02.226Z,1022.40
2018-02-16T05:12:02.199Z,1022.40
2018-02-16T05:13:02.173Z,1022.40
2018-02-16T05:14:02.147Z,1022.41
2018-02-16T05:15:02.121Z,1022.43
2018-02-16T05:16:02.094Z,1022.45
2018-02-16T05:17:02.068Z,1022.47
2018-02-16T05:18:02.041Z,1022.45
2018-02-16T05:19:02.016Z,1022.47
2018-02-16T05:20:01.990Z,1022.46
2018-02-16T05:21:01.963Z,1022.47
2018-02-16T05:22:01.951Z,1022.50
2018-02-16T05:23:01.910Z,1022.49
2018-02-16T05:24:01.884Z,1022.54
2018-02-16T05:25:01.856Z,1022.55
2018-02-16T05:26:01.831Z,1022.54
2018-02-16T05:27:01.807Z,1022.56
2018-02-16T05:28:01.779Z,1022.55
2018-02-16T05:29:01.752Z,1022.59
2018-02-16T05:30:01.726Z,1022.61
2018-02-16T05:31:01.708Z,1022.62
2018-02-16T05:32:01.674Z,1022.63
2018-02-16T05:33:01.646Z,1022.64
2018-02-16T05:34:01.621Z,1022.66
2018-02-16T05:35:01.594Z,1022.64
2018-02-16T05:36:01.571Z,1022.64
2018-02-16T05:37:01.540Z,1022.65
2018-02-16T05:38:01.515Z,1022.69
2018-02-16T05:39:01.488Z,1022.67
2018-02-16T05:40:01.464Z,1022.68
2018-02-16T05:41:01.437Z,1022.65
2018-02-16T05:42:01.412Z,1022.62
2018-02-16T05:43:01.382Z,1022.64
2018-02-16T05:44:01.357Z,1022.68
2018-02-16T05:45:01.329Z,1022.67
2018-02-16T05:46:01.304Z,1022.69
2018-02-16T05:47:01.277Z,1022.67
2018-02-16T05:48:01.251Z,1022.68
2018-02-16T05:49:01.225Z,1022.68
2018-02-16T05:50:01.202Z,1022.71
2018-02-16T05:51:01.172Z,1022.70
2018-02-16T05:52:01.146Z,1022.71
2018-02-16T05:53:01.120Z,1022.72
2018-02-16T05:54:01.094Z,1022.71
2018-02-16T05:55:01.068Z,1022.73
2018-02-16T05:56:01.042Z,1022.72
2018-02-16T05:57:01.015Z,1022.77
2018-02-16T05:58:00.989Z,1022.75
2018-02-16T05:59:00.963Z,1022.77
2018-02-16T06:00:00.936Z,1022.77
2018-02-16T06:01:00.911Z,1022.83
2018-02-16T06:02:00.884Z,1022.79
2018-02-16T06:03:00.858Z,1022.82
2018-02-16T06:04:00.835Z,1022.83
2018-02-16T06:05:00.806Z,1022.84
2018-02-16T06:06:00.781Z,1022.85
2018-02-16T06:07:00.754Z,1022.86
2018-02-16T06:08:00.728Z,1022.85
2018-02-16T06:09:00.700Z,1022.86
2018-02-16T06:10:00.674Z,1022.84
2018-02-16T06:11:00.648Z,1022.87
2018-02-16T06:12:00.625Z,1022.87
2018-02-16T06:13:00.596Z,1022.91
2018-02-16T06:14:00.570Z,1022.89
2018-02-16T06:15:00.543Z,1022.92
2018-02-16T06:16:00.557Z,1022.94
2018-02-16T06:17:00.491Z,1022.96
2018-02-16T06:18:00.467Z,1022.97
2018-02-16T06:19:00.439Z,1022.99
2018-02-16T06:20:00.413Z,1023.02
2018-02-16T06:21:00.389Z,1023.06
2018-02-16T06:22:00.358Z,1023.08
2018-02-16T06:23:00.334Z,1023.13
2018-02-16T06:24:00.307Z,1023.13
2018-02-16T06:25:00.283Z,1023.12
2018-02-16T06:26:00.253Z,1023.10
2018-02-16T06:27:00.226Z,1023.12
2018-02-16T06:28:00.201Z,1023.10
2018-02-16T06:29:00.174Z,1023.15
2018-02-16T06:30:00.154Z,1023.17
2018-02-16T06:31:00.168Z,1023.18
2018-02-16T06:32:00.096Z,1023.18
2018-02-16T06:33:00.069Z,1023.17
2018-02-16T06:34:00.046Z,1023.17
2018-02-16T06:35:00.023Z,1023.16
2018-02-16T06:35:59.990Z,1023.15
2018-02-16T06:36:59.963Z,1023.19
2018-02-16T06:37:59.936Z,1023.21
2018-02-16T06:38:59.910Z,1023.23
2018-02-16T06:39:59.885Z,1023.27
2018-02-16T06:40:59.858Z,1023.25
2018-02-16T06:41:59.831Z,1023.29
2018-02-16T06:42:59.806Z,1023.27
2018-02-16T06:43:59.809Z,1023.31
2018-02-16T06:44:59.752Z,1023.34
2018-02-16T06:45:59.726Z,1023.32
2018-02-16T06:46:59.699Z,1023.32
2018-02-16T06:47:59.674Z,1023.37
2018-02-16T06:48:59.646Z,1023.41
2018-02-16T06:49:59.620Z,1023.40
2018-02-16T06:50:59.594Z,1023.45
2018-02-16T06:51:59.568Z,1023.40
2018-02-16T06:52:59.540Z,1023.41
2018-02-16T06:53:59.516Z,1023.50
2018-02-16T06:54:59.489Z,1023.48
2018-02-16T06:55:59.462Z,1023.46
2018-02-16T06:56:59.435Z,1023.50
2018-02-16T06:57:59.408Z,1023.55
2018-02-16T06:58:59.382Z,1023.52
2018-02-16T06:59:59.396Z,1023.56
2018-02-16T07:00:59.330Z,1023.56
2018-02-16T07:01:59.302Z,1023.57
2018-02-16T07:02:59.278Z,1023.60
2018-02-16T07:03:59.251Z,1023.59
2018-02-16T07:04:59.224Z,1023.61
2018-02-16T07:05:59.198Z,1023.61
2018-02-16T07:06:59.172Z,1023.64
2018-02-16T07:07:59.146Z,1023.64
2018-02-16T07:08:59.118Z,1023.62
2018-02-16T07:09:59.092Z,1023.68
2018-02-16T07:10:59.069Z,1023.67
2018-02-16T07:11:59.040Z,1023.70
2018-02-16T07:12:59.013Z,1023.74
2018-02-16T07:13:58.986Z,1023.74
2018-02-16T07:14:58.961Z,1023.80
2018-02-16T07:15:58.934Z,1023.82
2018-02-16T07:16:58.908Z,1023.82
2018-02-16T07:17:58.881Z,1023.85
2018-02-16T07:18:58.855Z,1023.84
2018-02-16T07:19:58.829Z,1023.89
2018-02-16T07:20:58.802Z,1023.90
2018-02-16T07:21:58.775Z,1023.88
2018-02-16T07:22:58.751Z,1023.89
2018-02-16T07:23:58.724Z,1023.95
2018-02-16T07:24:58.697Z,1023.95
2018-02-16T07:25:58.671Z,1023.93
2018-02-16T07:26:58.645Z,1023.95
2018-02-16T07:27:58.618Z,1023.94
2018-02-16T07:28:58.592Z,1023.94
2018-02-16T07:29:58.568Z,1023.96
2018-02-16T07:30:58.540Z,1023.94
2018-02-16T07:31:58.513Z,1023.95
2018-02-16T07:32:58.487Z,1023.97
2018-02-16T07:33:58.461Z,1023.94
2018-02-16T07:34:58.435Z,1023.97
2018-02-16T07:35:58.409Z,1024.03
2018-02-16T07:36:58.381Z,1024.01
2018-02-16T07:37:58.356Z,1024.02
2018-02-16T07:38:58.333Z,1024.06
2018-02-16T07:39:58.304Z,1024.06
2018-02-16T07:40:58.277Z,1024.06
2018-02-16T07:41:58.251Z,1024.08
2018-02-16T07:42:58.225Z,1024.13
2018-02-16T07:43:58.199Z,1024.12
2018-02-16T07:44:58.172Z,1024.10
2018-02-16T07:45:58.145Z,1024.15
2018-02-16T07:46:58.120Z,1024.19
2018-02-16T07:47:58.094Z,1024.22
2018-02-16T07:48:58.068Z,1024.24
2018-02-16T07:49:58.041Z,1024.24
2018-02-16T07:50:58.016Z,1024.26
2018-02-16T07:51:57.990Z,1024.26
2018-02-16T07:52:57.963Z,1024.30
2018-02-16T07:53:57.938Z,1024.29
2018-02-16T07:54:57.914Z,1024.28
2018-02-16T07:55:57.886Z,1024.34
2018-02-16T07:56:57.860Z,1024.34
2018-02-16T07:57:57.837Z,1024.36
2018-02-16T07:58:57.808Z,1024.38
2018-02-16T07:59:57.782Z,1024.35
2018-02-16T08:00:57.756Z,1024.33
2018-02-16T08:01:57.729Z,1024.36
2018-02-16T08:02:57.705Z,1024.36
2018-02-16T08:03:57.684Z,1024.38
2018-02-16T08:04:57.655Z,1024.40
2018-02-16T08:05:57.627Z,1024.41
2018-02-16T08:06:57.601Z,1024.37
2018-02-16T08:07:57.575Z,1024.39
2018-02-16T08:08:57.550Z,1024.41
2018-02-16T08:09:57.524Z,1024.40
2018-02-16T08:10:57.498Z,1024.42
2018-02-16T08:11:57.473Z,1024.39
2018-02-16T08:12:57.446Z,1024.42
2018-02-16T08:13:57.421Z,1024.43
2018-02-16T08:14:57.396Z,1024.43
2018-02-16T08:15:57.370Z,1024.43
2018-02-16T08:16:57.348Z,1024.51
2018-02-16T08:17:57.317Z,1024.47
2018-02-16T08:18:57.292Z,1024.50
2018-02-16T08:19:57.267Z,1024.53
2018-02-16T08:20:57.240Z,1024.53
2018-02-16T08:21:57.221Z,1024.49
2018-02-16T08:22:57.189Z,1024.55
2018-02-16T08:23:57.164Z,1024.57
2018-02-16T08:24:57.137Z,1024.61
2018-02-16T08:25:57.110Z,1024.60
2018-02-16T08:26:57.085Z,1024.63
2018-02-16T08:27:57.061Z,1024.63
2018-02-16T08:28:57.037Z,1024.65
2018-02-16T08:29:57.009Z,1024.73
2018-02-16T08:30:56.983Z,1024.74
2018-02-16T08:31:56.958Z,1024.74
2018-02-16T08:32:56.932Z,1024.77
2018-02-16T08:33:56.905Z,1024.81
2018-02-16T08:34:56.886Z,1024.82
2018-02-16T08:35:56.856Z,1024.78
2018-02-16T08:36:56.828Z,1024.79
2018-02-16T08:37:56.832Z,1024.78
2018-02-16T08:38:56.777Z,1024.78
2018-02-16T08:39:56.754Z,1024.79
2018-02-16T08:40:56.726Z,1024.76
2018-02-16T08:41:56.702Z,1024.79
2018-02-16T08:42:56.678Z,1024.80
2018-02-16T08:43:56.651Z,1024.80
2018-02-16T08:44:56.624Z,1024.83
2018-02-16T08:45:56.601Z,1024.86
2018-02-16T08:46:56.576Z,1024.92
2018-02-16T08:47:56.548Z,1024.89
2018-02-16T08:48:56.525Z,1024.92
2018-02-16T08:49:56.497Z,1024.92
2018-02-16T08:50:56.472Z,1024.92
2018-02-16T08:51:56.446Z,1024.97
2018-02-16T08:52:56.423Z,1025.00
2018-02-16T08:53:56.400Z,1025.03
2018-02-16T08:54:56.370Z,1025.07
2018-02-16T08:55:56.345Z,1025.10
2018-02-16T08:56:56.319Z,1025.16
2018-02-16T08:57:56.293Z,1025.19
2018-02-16T08:58:56.268Z,1025.18
2018-02-16T08:59:56.247Z,1025.21
2018-02-16T09:00:56.221Z,1025.21
2018-02-16T09:01:56.192Z,1025.20
2018-02-16T09:02:56.167Z,1025.19
2018-02-16T09:03:56.142Z,1025.22
2018-02-16T09:04:56.116Z,1025.24
2018-02-16T09:05:56.091Z,1025.23
2018-02-16T09:06:56.068Z,1025.32
2018-02-16T09:07:56.068Z,1025.31
2018-02-16T09:08:56.016Z,1025.33
2018-02-16T09:09:55.989Z,1025.35
2018-02-16T09:10:55.965Z,1025.39
2018-02-16T09:11:55.938Z,1025.38
2018-02-16T09:12:55.912Z,1025.37
2018-02-16T09:13:55.889Z,1025.36
2018-02-16T09:14:55.866Z,1025.38
2018-02-16T09:15:55.838Z,1025.41
2018-02-16T09:16:55.813Z,1025.41
2018-02-16T09:17:55.787Z,1025.42
2018-02-16T09:18:55.764Z,1025.46
2018-02-16T09:19:55.739Z,1025.52
2018-02-16T09:20:55.714Z,1025.52
2018-02-16T09:21:55.688Z,1025.55
2018-02-16T09:22:55.662Z,1025.55
2018-02-16T09:23:55.641Z,1025.59
2018-02-16T09:24:55.613Z,1025.58
2018-02-16T09:25:55.587Z,1025.60
2018-02-16T09:26:55.564Z,1025.61
2018-02-16T09:27:55.537Z,1025.61
2018-02-16T09:28:55.513Z,1025.64
2018-02-16T09:29:55.488Z,1025.62
2018-02-16T09:30:55.463Z,1025.62
2018-02-16T09:31:55.439Z,1025.61
2018-02-16T09:32:55.413Z,1025.60
2018-02-16T09:33:55.389Z,1025.64
2018-02-16T09:34:55.363Z,1025.68
2018-02-16T09:35:55.339Z,1025.72
2018-02-16T09:36:55.314Z,1025.70
2018-02-16T09:37:55.290Z,1025.73
2018-02-16T09:38:55.264Z,1025.75
2018-02-16T09:39:55.241Z,1025.81
2018-02-16T09:40:55.215Z,1025.78
2018-02-16T09:41:55.190Z,1025.79
2018-02-16T09:42:55.166Z,1025.79
2018-02-16T09:43:55.142Z,1025.82
2018-02-16T09:44:55.116Z,1025.84
2018-02-16T09:45:55.090Z,1025.87
2018-02-16T09:46:55.067Z,1025.92
2018-02-16T09:47:55.041Z,1025.91
2018-02-16T09:48:55.017Z,1025.94
2018-02-16T09:49:55.016Z,1026.00
2018-02-16T09:50:54.968Z,1026.02
2018-02-16T09:51:54.942Z,1026.04
2018-02-16T09:52:54.918Z,1026.07
2018-02-16T09:53:54.893Z,1026.06
2018-02-16T09:54:54.870Z,1026.05
2018-02-16T09:55:54.845Z,1026.07
2018-02-16T09:56:54.820Z,1026.06
2018-02-16T09:57:54.798Z,1026.03
2018-02-16T09:58:54.770Z,1026.03
2018-02-16T09:59:54.745Z,1026.04
2018-02-16T10:00:54.721Z,1026.06
2018-02-16T10:01:54.700Z,1026.05
2018-02-16T10:02:54.671Z,1026.06
2018-02-16T10:03:54.649Z,1026.10
2018-02-16T10:04:54.623Z,1026.06
2018-02-16T10:05:54.600Z,1026.09
2018-02-16T10:06:54.574Z,1026.12
2018-02-16T10:07:54.551Z,1026.08
2018-02-16T10:08:54.527Z,1026.17
2018-02-16T10:09:54.501Z,1026.17
2018-02-16T10:10:54.478Z,1026.14
2018-02-16T10:11:54.453Z,1026.16
2018-02-16T10:12:54.455Z,1026.16
2018-02-16T10:13:54.404Z,1026.20
2018-02-16T10:14:54.380Z,1026.19
2018-02-16T10:15:54.357Z,1026.16
2018-02-16T10:16:54.331Z,1026.19
2018-02-16T10:17:54.308Z,1026.21
2018-02-16T10:18:54.282Z,1026.16
2018-02-16T10:19:54.260Z,1026.18
2018-02-16T10:20:54.236Z,1026.17
2018-02-16T10:21:54.211Z,1026.18
2018-02-16T10:22:54.187Z,1026.20
2018-02-16T10:23:54.164Z,1026.19
2018-02-16T10:24:54.138Z,1026.18
2018-02-16T10:25:54.115Z,1026.25
2018-02-16T10:26:54.091Z,1026.23
2018-02-16T10:27:54.068Z,1026.30
2018-02-16T10:28:54.042Z,1026.34
2018-02-16T10:29:54.019Z,1026.36
2018-02-16T10:30:53.996Z,1026.36
2018-02-16T10:31:53.973Z,1026.33
2018-02-16T10:32:53.947Z,1026.35
2018-02-16T10:33:53.925Z,1026.33
2018-02-16T10:34:53.902Z,1026.33
2018-02-16T10:35:53.878Z,1026.32
2018-02-16T10:36:53.854Z,1026.30
2018-02-16T10:37:53.830Z,1026.32
2018-02-16T10:38:53.806Z,1026.32
2018-02-16T10:39:53.783Z,1026.29
2018-02-16T10:40:53.759Z,1026.33
2018-02-16T10:41:53.735Z,1026.32
2018-02-16T10:42:53.712Z,1026.28
2018-02-16T10:43:53.689Z,1026.32
2018-02-16T10:44:53.667Z,1026.32
2018-02-16T10:45:53.640Z,1026.35
2018-02-16T10:46:53.618Z,1026.37
2018-02-16T10:47:53.594Z,1026.31
2018-02-16T10:48:53.570Z,1026.35
2018-02-16T10:49:53.564Z,1026.35
2018-02-16T10:50:53.523Z,1026.35
2018-02-16T10:51:53.500Z,1026.42
2018-02-16T10:52:53.476Z,1026.44
2018-02-16T10:53:53.452Z,1026.49
2018-02-16T10:54:53.429Z,1026.51
2018-02-16T10:55:53.411Z,1026.53
2018-02-16T10:56:53.382Z,1026.57
2018-02-16T10:57:53.358Z,1026.57
2018-02-16T10:58:53.335Z,1026.54
2018-02-16T10:59:53.313Z,1026.55
2018-02-16T11:00:53.289Z,1026.56
2018-02-16T11:01:53.264Z,1026.60
2018-02-16T11:02:53.241Z,1026.59
2018-02-16T11:03:53.218Z,1026.61
2018-02-16T11:04:53.193Z,1026.60
2018-02-16T11:05:53.172Z,1026.59
2018-02-16T11:06:53.148Z,1026.59
2018-02-16T11:07:53.122Z,1026.54
2018-02-16T11:08:53.100Z,1026.50
2018-02-16T11:09:53.077Z,1026.46
2018-02-16T11:10:53.052Z,1026.45
2018-02-16T11:11:53.030Z,1026.42
2018-02-16T11:12:53.005Z,1026.41
2018-02-16T11:13:52.983Z,1026.45
2018-02-16T11:14:52.961Z,1026.47
2018-02-16T11:15:52.938Z,1026.48
2018-02-16T11:16:52.911Z,1026.50
2018-02-16T11:17:52.889Z,1026.45
2018-02-16T11:18:52.866Z,1026.49
2018-02-16T11:19:52.843Z,1026.47
2018-02-16T11:20:52.819Z,1026.47
2018-02-16T11:21:52.796Z,1026.48
2018-02-16T11:22:52.771Z,1026.49
2018-02-16T11:23:52.749Z,1026.50
2018-02-16T11:24:52.726Z,1026.52
2018-02-16T11:25:52.702Z,1026.49
2018-02-16T11:26:52.679Z,1026.49
2018-02-16T11:27:52.656Z,1026.52
2018-02-16T11:28:52.633Z,1026.50
2018-02-16T11:29:52.609Z,1026.52
2018-02-16T11:30:52.587Z,1026.52
2018-02-16T11:31:52.562Z,1026.56
2018-02-16T11:32:52.539Z,1026.57
2018-02-16T11:33:52.515Z,1026.55
2018-02-16T11:34:52.496Z,1026.58
2018-02-16T11:35:52.468Z,1026.57
2018-02-16T11:36:52.443Z,1026.58
2018-02-16T11:37:52.421Z,1026.56
2018-02-16T11:38:52.397Z,1026.55
2018-02-16T11:39:52.375Z,1026.55
2018-02-16T11:40:52.351Z,1026.57
2018-02-16T11:41:52.328Z,1026.56
2018-02-16T11:42:52.304Z,1026.58
2018-02-16T11:43:52.282Z,1026.57
2018-02-16T11:44:52.258Z,1026.60
2018-02-16T11:45:52.234Z,1026.62
2018-02-16T11:46:52.214Z,1026.62
2018-02-16T11:47:52.188Z,1026.62
2018-02-16T11:48:52.163Z,1026.60
2018-02-16T11:49:52.141Z,1026.59
2018-02-16T11:50:52.116Z,1026.63
2018-02-16T11:51:52.094Z,1026.63
2018-02-16T11:52:52.070Z,1026.66
2018-02-16T11:53:52.046Z,1026.64
2018-02-16T11:54:52.025Z,1026.68
2018-02-16T11:55:52.002Z,1026.71
2018-02-16T11:56:51.977Z,1026.71
2018-02-16T11:57:51.953Z,1026.70
2018-02-16T11:58:51.931Z,1026.70
2018-02-16T11:59:51.908Z,1026.70
2018-02-16T12:00:51.883Z,1026.69
2018-02-16T12:01:51.861Z,1026.72
2018-02-16T12:02:51.838Z,1026.69
2018-02-16T12:03:51.815Z,1026.69
2018-02-16T12:04:51.791Z,1026.66